Time;durP1;ratioP1;P1;durP2;ratioP2;P2;SDS_P1;SDS_P2;PMS_P1;PMS_P2;Temp;Humidity;BMP_temperature;BMP_pressure;BME280_temperature;BME280_humidity;BME280_pressure;Samples;Min_cycle;Max_cycle;Signal;HPM_P1;HPM_P2
2023/08/10 00:00:16;;;;;;;3.70;1.10;;;16.20;70.00;;;;;;5058310;28;20071;-73
2023/08/10 00:02:45;;;;;;;2.35;1.20;;;16.20;70.30;;;;;;5048898;28;20490;-75
2023/08/10 00:05:11;;;;;;;4.00;1.10;;;16.20;70.50;;;;;;5045619;28;20050;-74
2023/08/10 00:07:38;;;;;;;3.05;0.93;;;16.10;70.50;;;;;;5043399;28;20321;-73
2023/08/10 00:10:08;;;;;;;3.92;1.10;;;16.20;70.60;;;;;;5027163;28;20058;-73
2023/08/10 00:12:35;;;;;;;4.80;1.27;;;16.20;70.80;;;;;;5056147;28;20059;-74
2023/08/10 00:15:02;;;;;;;5.57;1.25;;;16.10;70.90;;;;;;5058093;28;20055;-75
2023/08/10 00:17:29;;;;;;;6.78;1.70;;;16.20;71.00;;;;;;5058317;28;20062;-75
2023/08/10 00:19:54;;;;;;;4.65;1.10;;;16.10;71.10;;;;;;5042043;28;20097;-72
2023/08/10 00:22:20;;;;;;;8.40;1.33;;;16.10;71.30;;;;;;5042696;28;21285;-74
2023/08/10 00:24:47;;;;;;;3.40;1.10;;;16.20;71.40;;;;;;5053703;28;20782;-75
2023/08/10 00:27:15;;;;;;;3.70;1.08;;;16.10;71.70;;;;;;5058698;28;20044;-74
2023/08/10 00:29:41;;;;;;;8.43;1.58;;;16.10;72.00;;;;;;5057182;28;20422;-73
2023/08/10 00:32:07;;;;;;;4.47;1.20;;;16.10;72.20;;;;;;5059819;28;20056;-75
2023/08/10 00:34:33;;;;;;;3.67;1.00;;;16.10;72.30;;;;;;5057368;28;20121;-75
2023/08/10 00:36:59;;;;;;;5.95;1.23;;;16.10;72.50;;;;;;5061285;28;20127;-73
2023/08/10 00:39:24;;;;;;;2.92;0.90;;;16.10;72.70;;;;;;5059862;28;20105;-73
2023/08/10 00:41:50;;;;;;;6.35;1.52;;;16.10;72.80;;;;;;5053963;28;20130;-74
2023/08/10 00:44:18;;;;;;;5.90;1.13;;;16.10;72.90;;;;;;5065063;28;20048;-76
2023/08/10 00:46:43;;;;;;;8.43;1.40;;;16.00;73.20;;;;;;5068181;28;20044;-75
2023/08/10 00:49:10;;;;;;;3.83;1.10;;;16.00;73.60;;;;;;5059509;28;20070;-74
2023/08/10 00:51:36;;;;;;;2.88;0.88;;;16.00;74.00;;;;;;5041414;28;20055;-71
2023/08/10 00:54:04;;;;;;;5.22;1.10;;;15.90;74.30;;;;;;5043092;28;20064;-75
2023/08/10 00:56:30;;;;;;;3.42;1.23;;;15.90;74.90;;;;;;5057463;28;20051;-75
2023/08/10 00:58:56;;;;;;;5.68;1.33;;;15.80;75.20;;;;;;5062807;28;20490;-73
2023/08/10 01:01:22;;;;;;;4.57;1.15;;;15.80;75.60;;;;;;5044751;28;20062;-73
2023/08/10 01:03:47;;;;;;;2.55;1.00;;;15.80;76.00;;;;;;5057991;28;20044;-75
2023/08/10 01:06:31;;;;;;;5.57;1.00;;;15.70;76.40;;;;;;5058306;28;20055;-75
2023/08/10 01:09:24;;;;;;;2.47;1.20;;;15.70;77.00;;;;;;5057233;28;20055;-76
2023/08/10 01:12:17;;;;;;;2.58;1.35;;;15.60;77.40;;;;;;5035764;28;20039;-73
2023/08/10 01:15:13;;;;;;;4.85;1.30;;;15.60;77.70;;;;;;5049606;28;20137;-72
2023/08/10 01:17:43;;;;;;;7.32;1.50;;;15.50;77.90;;;;;;5041235;28;20064;-76
2023/08/10 01:20:11;;;;;;;4.35;1.27;;;15.50;77.90;;;;;;5057388;28;20036;-74
2023/08/10 01:22:56;;;;;;;5.15;1.20;;;15.40;78.10;;;;;;5058290;28;20081;-75
2023/08/10 01:25:25;;;;;;;4.00;1.20;;;15.40;78.50;;;;;;5058427;28;20056;-76
2023/08/10 01:27:51;;;;;;;5.05;1.42;;;15.30;78.60;;;;;;5057235;28;20051;-76
2023/08/10 01:30:18;;;;;;;3.05;1.00;;;15.30;78.90;;;;;;5063530;28;20088;-76
2023/08/10 01:32:44;;;;;;;4.40;1.10;;;15.30;79.10;;;;;;5045952;28;20075;-73
2023/08/10 01:35:13;;;;;;;3.90;1.30;;;15.20;79.40;;;;;;5045578;28;20248;-76
2023/08/10 01:37:39;;;;;;;3.95;1.20;;;15.20;79.80;;;;;;5046953;28;20072;-74
2023/08/10 01:40:12;;;;;;;3.15;1.10;;;15.20;80.00;;;;;;5050992;28;20051;-77
2023/08/10 01:42:38;;;;;;;4.18;0.98;;;15.10;80.10;;;;;;5061957;28;20062;-76
2023/08/10 01:45:04;;;;;;;2.20;1.10;;;15.10;80.30;;;;;;5057880;28;20037;-75
2023/08/10 01:47:39;;;;;;;2.95;1.08;;;15.10;80.60;;;;;;5020454;28;20386;-73
2023/08/10 01:50:08;;;;;;;3.75;1.33;;;15.90;81.20;;;;;;5058343;28;20522;-77
2023/08/10 01:52:38;;;;;;;4.40;1.30;;;15.10;80.90;;;;;;5052083;28;20050;-74
2023/08/10 01:55:07;;;;;;;3.70;1.00;;;15.10;81.00;;;;;;5055411;28;20136;-73
2023/08/10 01:57:33;;;;;;;3.22;1.20;;;15.00;81.10;;;;;;5055214;28;20418;-73
2023/08/10 01:59:59;;;;;;;3.25;1.17;;;15.00;81.40;;;;;;5061147;28;20506;-71
2023/08/10 02:02:25;;;;;;;4.68;1.02;;;15.00;81.50;;;;;;5043694;28;20125;-74
2023/08/10 02:04:51;;;;;;;4.00;1.20;;;15.00;81.90;;;;;;5051959;28;20047;-74
2023/08/10 02:07:17;;;;;;;5.50;1.20;;;15.00;81.90;;;;;;5057593;28;20063;-75
2023/08/10 02:09:43;;;;;;;3.42;1.15;;;14.90;82.20;;;;;;5058762;28;20044;-73
2023/08/10 02:12:09;;;;;;;2.42;0.98;;;15.00;82.50;;;;;;5070643;28;20051;-72
2023/08/10 02:14:34;;;;;;;3.65;1.00;;;15.00;82.70;;;;;;5070388;28;21481;-76
2023/08/10 02:17:00;;;;;;;3.08;1.10;;;14.90;82.80;;;;;;5051419;28;20121;-76
2023/08/10 02:19:26;;;;;;;3.15;1.20;;;14.90;82.90;;;;;;5053615;28;20051;-74
2023/08/10 02:21:52;;;;;;;3.75;1.20;;;15.30;83.30;;;;;;5023022;28;20051;-74
2023/08/10 02:24:18;;;;;;;6.80;1.40;;;14.90;83.10;;;;;;5045565;28;20053;-73
2023/08/10 02:26:43;;;;;;;3.58;1.50;;;15.00;83.20;;;;;;5061059;28;20491;-76
2023/08/10 02:29:09;;;;;;;2.90;0.98;;;15.00;83.20;;;;;;5043345;28;20143;-75
2023/08/10 02:31:35;;;;;;;3.85;1.00;;;15.00;83.40;;;;;;5063157;28;20055;-73
2023/08/10 02:34:01;;;;;;;3.70;1.45;;;15.00;83.40;;;;;;5077573;28;20589;-73
2023/08/10 02:36:27;;;;;;;3.58;1.00;;;15.10;83.60;;;;;;5064368;28;20062;-74
2023/08/10 02:38:52;;;;;;;4.38;1.15;;;15.10;83.60;;;;;;5066395;28;20062;-76
2023/08/10 02:41:18;;;;;;;3.25;1.40;;;15.10;83.60;;;;;;5067902;28;20506;-72
2023/08/10 02:43:44;;;;;;;4.45;1.10;;;15.10;83.70;;;;;;5062569;28;20074;-75
2023/08/10 02:46:10;;;;;;;3.97;1.20;;;15.20;84.00;;;;;;5062263;28;20122;-73
2023/08/10 02:48:35;;;;;;;3.47;1.25;;;15.20;84.10;;;;;;5052227;28;20448;-72
2023/08/10 02:51:01;;;;;;;5.22;1.27;;;15.20;84.10;;;;;;5044211;28;20039;-75
2023/08/10 02:53:27;;;;;;;2.92;1.30;;;15.20;84.30;;;;;;5057262;28;21156;-74
2023/08/10 02:55:53;;;;;;;4.22;0.98;;;15.20;84.40;;;;;;5043395;28;20494;-72
2023/08/10 02:58:21;;;;;;;2.67;1.20;;;15.30;84.50;;;;;;5060253;28;20040;-73
2023/08/10 03:00:48;;;;;;;5.22;1.50;;;15.20;84.60;;;;;;5057968;28;20078;-75
2023/08/10 03:03:14;;;;;;;1.85;1.17;;;15.30;85.20;;;;;;5059783;28;20044;-72
2023/08/10 03:05:40;;;;;;;2.72;1.20;;;15.30;85.00;;;;;;5042114;28;20039;-74
2023/08/10 03:08:06;;;;;;;4.10;1.23;;;15.30;85.10;;;;;;5056873;28;20047;-72
2023/08/10 03:10:32;;;;;;;3.83;1.17;;;15.30;85.10;;;;;;5061927;28;20582;-74
2023/08/10 03:12:58;;;;;;;4.18;1.00;;;15.30;85.20;;;;;;5046887;28;20036;-76
2023/08/10 03:15:24;;;;;;;2.60;1.10;;;15.30;85.40;;;;;;5058491;28;20586;-73
2023/08/10 03:17:50;;;;;;;4.05;1.20;;;15.30;85.40;;;;;;5056481;28;20044;-74
2023/08/10 03:20:18;;;;;;;8.27;1.60;;;15.30;85.70;;;;;;5055094;28;21432;-76
2023/08/10 03:22:44;;;;;;;6.95;1.45;;;15.30;85.70;;;;;;5058987;28;20390;-74
2023/08/10 03:25:10;;;;;;;5.30;1.40;;;15.30;85.90;;;;;;5044787;28;20036;-73
2023/08/10 03:27:36;;;;;;;4.80;1.30;;;15.40;86.20;;;;;;5054581;28;20054;-74
2023/08/10 03:30:04;;;;;;;2.60;1.10;;;15.40;86.30;;;;;;5058350;28;20055;-76
2023/08/10 03:32:30;;;;;;;3.33;1.17;;;15.40;86.40;;;;;;5048008;28;20495;-74
2023/08/10 03:34:56;;;;;;;4.78;1.30;;;15.40;86.50;;;;;;5043809;28;20085;-74
2023/08/10 03:37:22;;;;;;;4.45;1.17;;;15.40;86.70;;;;;;5046391;28;20391;-74
2023/08/10 03:39:47;;;;;;;2.35;1.30;;;15.40;86.80;;;;;;5043848;28;20055;-77
2023/08/10 03:42:13;;;;;;;3.67;1.45;;;15.50;87.00;;;;;;5026903;28;20058;-75
2023/08/10 03:44:39;;;;;;;4.03;1.10;;;15.50;87.20;;;;;;5043193;28;20668;-76
2023/08/10 03:47:05;;;;;;;2.80;1.23;;;15.50;87.40;;;;;;5056729;28;20548;-76
2023/08/10 03:49:30;;;;;;;5.18;1.42;;;15.50;87.50;;;;;;5055821;28;20054;-75
2023/08/10 03:51:56;;;;;;;4.15;1.40;;;15.50;87.60;;;;;;5074343;28;20059;-76
2023/08/10 03:54:22;;;;;;;4.75;1.42;;;15.50;87.70;;;;;;5025984;28;20784;-75
2023/08/10 03:56:48;;;;;;;2.58;1.10;;;15.50;87.90;;;;;;5045517;28;20729;-76
2023/08/10 03:59:14;;;;;;;3.70;1.15;;;15.50;87.90;;;;;;5043720;28;20052;-75
2023/08/10 04:01:41;;;;;;;2.60;0.90;;;15.50;88.00;;;;;;5052798;28;20075;-76
2023/08/10 04:04:07;;;;;;;3.45;1.20;;;15.50;88.10;;;;;;5051373;28;20400;-73
2023/08/10 04:06:32;;;;;;;8.48;1.40;;;15.50;88.10;;;;;;5046100;28;20533;-73
2023/08/10 04:08:58;;;;;;;2.47;0.90;;;15.60;88.30;;;;;;5043607;28;20048;-75
2023/08/10 04:11:24;;;;;;;3.85;1.25;;;15.60;88.40;;;;;;5037298;28;20122;-74
2023/08/10 04:13:50;;;;;;;6.88;1.35;;;15.60;88.60;;;;;;5051124;28;20047;-75
2023/08/10 04:16:16;;;;;;;4.13;1.30;;;15.60;88.90;;;;;;5028260;28;20058;-75
2023/08/10 04:18:42;;;;;;;4.07;1.40;;;15.60;90.00;;;;;;5055141;28;20429;-74
2023/08/10 04:21:08;;;;;;;5.85;1.40;;;15.60;89.90;;;;;;5042949;28;20141;-74
2023/08/10 04:23:35;;;;;;;5.05;1.20;;;15.60;90.10;;;;;;5072640;28;21862;-77
2023/08/10 04:26:00;;;;;;;6.85;1.50;;;15.70;90.50;;;;;;5009987;28;20424;-74
2023/08/10 04:28:26;;;;;;;6.13;1.55;;;15.70;90.40;;;;;;5056011;28;20044;-74
2023/08/10 04:30:52;;;;;;;7.75;1.55;;;15.70;90.40;;;;;;5017326;28;20036;-76
2023/08/10 04:33:18;;;;;;;4.30;1.40;;;15.70;90.50;;;;;;5054574;28;20395;-75
2023/08/10 04:35:44;;;;;;;3.20;1.30;;;15.70;90.60;;;;;;5056752;28;20051;-76
2023/08/10 04:38:12;;;;;;;7.00;1.80;;;15.70;90.70;;;;;;5030349;28;20051;-74
2023/08/10 04:40:38;;;;;;;5.85;1.35;;;15.70;90.80;;;;;;5049407;28;20044;-74
2023/08/10 04:43:04;;;;;;;4.28;1.13;;;15.70;91.00;;;;;;5059985;28;20058;-77
2023/08/10 04:45:30;;;;;;;3.85;1.38;;;15.70;91.30;;;;;;5024993;28;20079;-76
2023/08/10 04:47:55;;;;;;;4.45;1.30;;;15.70;91.40;;;;;;5043366;28;20044;-73
2023/08/10 04:50:21;;;;;;;3.13;1.45;;;15.60;91.60;;;;;;5027953;28;20059;-73
2023/08/10 04:52:47;;;;;;;6.90;1.70;;;15.70;92.00;;;;;;5041197;28;20096;-77
2023/08/10 04:55:13;;;;;;;4.60;1.50;;;15.70;91.90;;;;;;5054122;28;20058;-76
2023/08/10 04:57:39;;;;;;;1.88;1.13;;;15.70;92.00;;;;;;5028670;28;20079;-73
2023/08/10 05:00:09;;;;;;;4.38;1.48;;;15.70;92.10;;;;;;5058752;28;20054;-77
2023/08/10 05:02:36;;;;;;;2.78;1.35;;;15.60;92.20;;;;;;5043006;28;20458;-74
2023/08/10 05:05:03;;;;;;;3.97;1.38;;;15.70;92.30;;;;;;5040710;28;20047;-74
2023/08/10 05:07:29;;;;;;;5.07;1.40;;;15.70;92.40;;;;;;5056283;28;20498;-74
2023/08/10 05:09:55;;;;;;;5.00;1.50;;;15.70;92.50;;;;;;5043422;28;20128;-74
2023/08/10 05:12:21;;;;;;;2.65;1.40;;;15.70;92.50;;;;;;5042123;28;20549;-72
2023/08/10 05:14:47;;;;;;;3.30;1.52;;;15.80;92.60;;;;;;5036502;28;20047;-75
2023/08/10 05:17:13;;;;;;;6.18;1.63;;;15.80;92.70;;;;;;5056675;28;20047;-72
2023/08/10 05:19:38;;;;;;;5.57;1.77;;;15.80;92.90;;;;;;5022055;28;20044;-73
2023/08/10 05:22:04;;;;;;;3.97;1.30;;;15.80;93.00;;;;;;5056988;28;20147;-75
2023/08/10 05:24:32;;;;;;;4.97;1.40;;;15.90;93.10;;;;;;5042230;28;20509;-76
2023/08/10 05:27:00;;;;;;;5.93;1.58;;;15.90;93.20;;;;;;5043429;28;20101;-73
2023/08/10 05:29:26;;;;;;;6.05;1.52;;;16.00;93.20;;;;;;5063005;28;20044;-75
2023/08/10 05:31:51;;;;;;;7.57;1.73;;;16.00;93.20;;;;;;5060114;28;21015;-76
2023/08/10 05:34:17;;;;;;;4.97;1.60;;;16.10;93.40;;;;;;5056731;28;20172;-76
2023/08/10 05:36:43;;;;;;;4.85;1.27;;;16.10;93.40;;;;;;5033732;28;20133;-74
2023/08/10 05:39:09;;;;;;;4.05;1.45;;;16.10;93.60;;;;;;5060567;28;20398;-72
2023/08/10 05:41:34;;;;;;;6.63;1.65;;;16.20;93.80;;;;;;5042078;28;21491;-76
2023/08/10 05:44:00;;;;;;;4.07;1.90;;;16.20;94.00;;;;;;5055529;28;20609;-76
2023/08/10 05:46:26;;;;;;;8.23;1.80;;;16.20;94.20;;;;;;5047504;28;20052;-76
2023/08/10 05:48:52;;;;;;;4.95;1.50;;;16.20;94.30;;;;;;5064847;28;20483;-74
2023/08/10 05:51:18;;;;;;;4.75;1.48;;;16.20;94.50;;;;;;5069333;28;20047;-77
2023/08/10 05:53:44;;;;;;;6.63;1.85;;;16.20;94.60;;;;;;5061891;28;20521;-74
2023/08/10 05:56:10;;;;;;;3.58;2.00;;;16.20;94.60;;;;;;5040258;28;20058;-76
2023/08/10 05:58:36;;;;;;;4.70;1.35;;;16.30;94.70;;;;;;5062127;28;20048;-75
2023/08/10 06:01:03;;;;;;;3.03;1.65;;;16.30;94.80;;;;;;5053324;28;20047;-75
2023/08/10 06:03:29;;;;;;;4.90;1.60;;;16.30;94.80;;;;;;5054966;28;20095;-75
2023/08/10 06:05:54;;;;;;;3.55;1.80;;;16.30;95.00;;;;;;5064196;28;20095;-77
2023/08/10 06:08:22;;;;;;;4.85;1.90;;;16.40;95.10;;;;;;5063054;28;20052;-77
2023/08/10 06:10:50;;;;;;;4.57;1.88;;;16.40;95.30;;;;;;5047404;28;21021;-75
2023/08/10 06:13:18;;;;;;;4.80;1.55;;;16.40;95.40;;;;;;5057791;28;20114;-77
2023/08/10 06:15:46;;;;;;;6.05;1.83;;;16.50;95.50;;;;;;5040975;28;20067;-76
2023/08/10 06:18:12;;;;;;;5.97;1.70;;;16.50;95.50;;;;;;5057009;28;20048;-75
2023/08/10 06:20:37;;;;;;;4.47;1.98;;;16.50;95.50;;;;;;5056840;28;20052;-74
2023/08/10 06:23:04;;;;;;;5.90;1.98;;;16.50;95.50;;;;;;5043042;28;21703;-78
2023/08/10 06:25:30;;;;;;;4.50;1.92;;;16.50;95.50;;;;;;5059032;28;20055;-77
2023/08/10 06:27:57;;;;;;;4.07;1.90;;;16.60;95.40;;;;;;5062305;28;20074;-74
2023/08/10 06:30:24;;;;;;;3.72;1.77;;;16.60;95.50;;;;;;5045906;28;20095;-74
2023/08/10 06:32:50;;;;;;;7.45;2.35;;;16.70;95.40;;;;;;5025982;28;20148;-76
2023/08/10 06:35:15;;;;;;;5.50;2.75;;;16.70;95.30;;;;;;5044690;28;20429;-74
2023/08/10 06:37:42;;;;;;;7.45;2.60;;;16.70;95.40;;;;;;5062436;28;20042;-73
2023/08/10 06:40:08;;;;;;;4.35;2.40;;;16.70;95.50;;;;;;5065972;28;20089;-75
2023/08/10 06:42:35;;;;;;;4.85;2.50;;;16.70;95.40;;;;;;5061728;28;20052;-78
2023/08/10 06:45:02;;;;;;;5.50;2.10;;;16.80;95.50;;;;;;5062401;28;20433;-77
2023/08/10 06:47:28;;;;;;;5.57;2.35;;;16.80;95.50;;;;;;5051422;28;20390;-78
2023/08/10 06:49:54;;;;;;;5.43;2.05;;;16.90;95.50;;;;;;5068759;28;20048;-74
2023/08/10 06:52:19;;;;;;;5.97;2.35;;;17.00;95.50;;;;;;5060337;28;20047;-77
2023/08/10 06:54:45;;;;;;;4.13;1.80;;;17.00;95.50;;;;;;5074880;28;20129;-74
2023/08/10 06:57:11;;;;;;;5.15;2.08;;;17.10;95.50;;;;;;5043579;28;20048;-74
2023/08/10 06:59:37;;;;;;;3.63;1.77;;;17.10;95.40;;;;;;5043774;28;20052;-74
2023/08/10 07:02:02;;;;;;;5.53;1.80;;;17.20;95.30;;;;;;5056811;28;21014;-74
2023/08/10 07:04:28;;;;;;;3.65;1.80;;;17.20;95.00;;;;;;5040638;28;20061;-77
2023/08/10 07:06:54;;;;;;;5.50;1.95;;;17.30;94.70;;;;;;5047981;28;20044;-74
2023/08/10 07:09:22;;;;;;;4.32;1.70;;;17.30;94.40;;;;;;5046459;28;20059;-75
2023/08/10 07:11:49;;;;;;;4.95;1.60;;;17.30;94.20;;;;;;5028799;28;20056;-77
2023/08/10 07:14:14;;;;;;;3.60;1.08;;;17.40;93.90;;;;;;5060657;28;20044;-74
2023/08/10 07:16:40;;;;;;;3.47;1.30;;;17.40;93.60;;;;;;5046013;28;20044;-76
2023/08/10 07:19:06;;;;;;;4.53;1.30;;;17.40;93.10;;;;;;5060303;28;20477;-74
2023/08/10 07:21:31;;;;;;;5.30;2.60;;;17.40;92.60;;;;;;5076029;28;20056;-78
2023/08/10 07:23:59;;;;;;;6.82;2.20;;;17.50;92.00;;;;;;5054300;28;20044;-76
2023/08/10 07:26:25;;;;;;;4.07;1.50;;;17.50;91.50;;;;;;5045557;28;20056;-75
2023/08/10 07:28:50;;;;;;;3.17;1.10;;;17.50;91.20;;;;;;5058394;28;20052;-74
2023/08/10 07:31:16;;;;;;;3.67;1.35;;;17.60;90.80;;;;;;5064222;28;20052;-75
2023/08/10 07:33:42;;;;;;;4.07;1.20;;;17.60;90.20;;;;;;5064225;28;20123;-74
2023/08/10 07:36:12;;;;;;;1.77;0.90;;;17.70;89.50;;;;;;5079843;28;20039;-75
2023/08/10 07:38:37;;;;;;;3.53;1.15;;;17.70;88.50;;;;;;5061986;28;20041;-75
2023/08/10 07:41:03;;;;;;;2.58;1.17;;;17.80;87.50;;;;;;5056524;28;20044;-77
2023/08/10 07:43:29;;;;;;;3.22;1.33;;;17.90;86.50;;;;;;5041394;28;20047;-75
2023/08/10 07:45:55;;;;;;;3.90;1.30;;;17.90;85.50;;;;;;5058692;28;20067;-75
2023/08/10 07:48:20;;;;;;;3.05;1.08;;;18.00;84.90;;;;;;5034105;28;20482;-75
2023/08/10 07:50:47;;;;;;;3.47;1.00;;;18.00;84.60;;;;;;5056840;28;20051;-77
2023/08/10 07:53:12;;;;;;;4.25;1.15;;;18.10;84.20;;;;;;5042464;28;20498;-73
2023/08/10 07:55:38;;;;;;;3.58;1.30;;;18.20;83.40;;;;;;5058524;28;20054;-74
2023/08/10 07:58:04;;;;;;;4.72;1.45;;;18.20;82.40;;;;;;5041746;28;20366;-77
2023/08/10 08:00:30;;;;;;;4.05;1.02;;;18.20;81.90;;;;;;5057955;28;20090;-75
2023/08/10 08:02:55;;;;;;;4.38;1.15;;;18.30;81.40;;;;;;5023042;28;20180;-73
2023/08/10 08:05:21;;;;;;;4.15;1.38;;;18.30;80.90;;;;;;5043868;28;20047;-74
2023/08/10 08:07:47;;;;;;;2.38;0.93;;;18.30;80.50;;;;;;5057909;28;20048;-76
2023/08/10 08:10:13;;;;;;;4.68;1.10;;;18.40;80.40;;;;;;5056217;28;20047;-74
2023/08/10 08:12:40;;;;;;;4.78;1.23;;;18.40;80.30;;;;;;5054349;28;20054;-75
2023/08/10 08:15:06;;;;;;;1.70;1.08;;;18.40;80.60;;;;;;5038478;28;20048;-74
2023/08/10 08:18:16;;;;;;;4.38;1.30;;;18.50;80.60;;;;;;5061929;28;20071;-74
2023/08/10 08:20:42;;;;;;;2.83;1.10;;;18.50;79.70;;;;;;5056904;28;20064;-77
2023/08/10 08:23:08;;;;;;;5.50;1.55;;;18.60;80.00;;;;;;5044459;28;20112;-73
2023/08/10 08:25:33;;;;;;;2.60;1.10;;;18.60;79.10;;;;;;5027943;28;20062;-75
2023/08/10 08:28:01;;;;;;;4.78;1.00;;;18.70;78.20;;;;;;5053358;28;20453;-74
2023/08/10 08:30:27;;;;;;;4.88;1.30;;;18.80;77.20;;;;;;5057802;28;20133;-74
2023/08/10 08:32:53;;;;;;;2.42;1.17;;;18.80;75.10;;;;;;5041759;28;20474;-73
2023/08/10 08:35:19;;;;;;;2.63;1.00;;;18.90;74.00;;;;;;5075388;28;20048;-74
2023/08/10 08:37:45;;;;;;;3.08;0.88;;;19.00;73.10;;;;;;5030762;28;20603;-76
2023/08/10 08:40:11;;;;;;;5.68;1.30;;;19.10;71.70;;;;;;5047454;28;21282;-76
2023/08/10 08:42:38;;;;;;;2.33;0.95;;;19.10;70.00;;;;;;5043613;28;20090;-74
2023/08/10 08:45:05;;;;;;;3.95;1.20;;;19.10;68.80;;;;;;5057609;28;20651;-76
2023/08/10 08:47:31;;;;;;;3.80;0.90;;;19.10;68.20;;;;;;5029360;28;20062;-76
2023/08/10 08:49:58;;;;;;;4.28;1.27;;;19.10;67.50;;;;;;5062690;28;20048;-75
2023/08/10 08:52:23;;;;;;;2.08;1.10;;;19.10;66.80;;;;;;5062054;28;20040;-74
2023/08/10 08:54:50;;;;;;;5.10;1.42;;;19.10;66.80;;;;;;5064282;28;20055;-73
2023/08/10 08:57:16;;;;;;;5.55;1.38;;;19.20;66.50;;;;;;5050076;28;20048;-77
2023/08/10 08:59:41;;;;;;;4.28;1.35;;;19.20;66.40;;;;;;5046059;28;20046;-74
2023/08/10 09:02:10;;;;;;;3.15;1.40;;;19.30;65.80;;;;;;5080624;28;20086;-74
2023/08/10 09:04:35;;;;;;;5.30;1.30;;;19.40;65.90;;;;;;5046123;28;20148;-76
2023/08/10 09:07:01;;;;;;;3.05;1.02;;;19.60;65.70;;;;;;5078052;28;20047;-75
2023/08/10 09:09:28;;;;;;;2.97;1.13;;;19.70;63.90;;;;;;5044968;28;20076;-75
2023/08/10 09:11:54;;;;;;;2.50;1.15;;;19.90;61.70;;;;;;5063504;28;20109;-75
2023/08/10 09:14:20;;;;;;;4.32;1.00;;;20.10;58.90;;;;;;5064596;28;20036;-74
2023/08/10 09:16:52;;;;;;;2.83;1.20;;;20.20;57.30;;;;;;5065712;28;20051;-75
2023/08/10 09:19:17;;;;;;;6.25;1.30;;;20.30;56.60;;;;;;5033001;28;21134;-75
2023/08/10 09:21:45;;;;;;;5.57;1.38;;;20.40;55.30;;;;;;5044641;28;20396;-74
2023/08/10 09:24:11;;;;;;;3.63;1.27;;;20.50;54.30;;;;;;5038507;28;20040;-75
2023/08/10 09:26:39;;;;;;;4.60;1.50;;;20.60;54.20;;;;;;5035529;28;20044;-77
2023/08/10 09:29:04;;;;;;;5.60;1.20;;;20.70;53.90;;;;;;5060764;28;20052;-78
2023/08/10 09:31:30;;;;;;;3.97;1.40;;;20.80;53.80;;;;;;5015515;28;20058;-78
2023/08/10 09:33:58;;;;;;;3.95;1.88;;;20.90;53.00;;;;;;5033569;28;20891;-73
2023/08/10 09:36:26;;;;;;;3.90;1.50;;;20.90;53.30;;;;;;5060741;28;20049;-74
2023/08/10 09:38:53;;;;;;;4.60;1.83;;;21.00;53.40;;;;;;5061518;28;20055;-76
2023/08/10 09:41:23;;;;;;;5.40;2.33;;;21.10;53.80;;;;;;5061570;28;20044;-77
2023/08/10 09:43:49;;;;;;;6.18;1.95;;;21.30;54.00;;;;;;5052887;28;20079;-75
2023/08/10 09:46:16;;;;;;;7.07;2.33;;;21.40;54.30;;;;;;5063153;28;20577;-76
2023/08/10 09:48:47;;;;;;;7.63;2.70;;;21.50;53.40;;;;;;5050361;28;20758;-75
2023/08/10 09:51:13;;;;;;;4.63;2.22;;;21.60;52.90;;;;;;5062663;28;20039;-76
2023/08/10 09:53:40;;;;;;;4.80;2.30;;;21.70;53.10;;;;;;5062355;28;20644;-77
2023/08/10 09:56:08;;;;;;;4.70;2.00;;;21.70;52.70;;;;;;5052829;28;20848;-75
2023/08/10 09:58:39;;;;;;;5.80;2.63;;;21.80;53.00;;;;;;5059321;28;20059;-76
2023/08/10 10:01:07;;;;;;;4.43;2.33;;;21.80;52.90;;;;;;5070001;28;20052;-79
2023/08/10 10:03:33;;;;;;;3.80;2.17;;;21.90;52.60;;;;;;5052843;28;20494;-74
2023/08/10 10:06:00;;;;;;;6.05;2.10;;;21.90;52.20;;;;;;5041330;28;20044;-75
2023/08/10 10:08:26;;;;;;;5.80;2.20;;;22.00;51.60;;;;;;5054602;28;20044;-78
2023/08/10 10:10:58;;;;;;;6.85;2.88;;;22.30;50.40;;;;;;5055463;28;20047;-77
2023/08/10 10:13:25;;;;;;;3.92;1.92;;;22.50;49.90;;;;;;5057624;28;20043;-74
2023/08/10 10:15:54;;;;;;;4.50;2.28;;;22.70;47.80;;;;;;5057959;28;20047;-74
2023/08/10 10:18:20;;;;;;;5.80;2.00;;;23.00;46.70;;;;;;5039120;28;20051;-74
2023/08/10 10:20:46;;;;;;;3.58;1.42;;;23.10;44.50;;;;;;5041142;28;20059;-74
2023/08/10 10:23:17;;;;;;;5.65;2.08;;;23.30;41.60;;;;;;5044133;28;21010;-77
2023/08/10 10:26:00;;;;;;;3.13;1.60;;;23.40;39.90;;;;;;5058371;28;20052;-75
2023/08/10 10:28:29;;;;;;;3.47;1.63;;;23.40;38.20;;;;;;5051208;28;20047;-77
2023/08/10 10:30:59;;;;;;;5.45;1.95;;;23.40;38.30;;;;;;5034392;28;20637;-78
2023/08/10 10:33:25;;;;;;;4.47;1.80;;;23.40;36.70;;;;;;5039246;28;20074;-76
2023/08/10 10:36:18;;;;;;;4.97;2.00;;;23.40;37.20;;;;;;5053261;28;20044;-76
2023/08/10 10:38:52;;;;;;;5.95;2.58;;;23.40;35.40;;;;;;5073980;28;20052;-77
2023/08/10 10:41:41;;;;;;;6.27;2.43;;;23.40;37.10;;;;;;5046068;28;20672;-76
2023/08/10 10:44:09;;;;;;;5.93;2.15;;;23.50;36.60;;;;;;5050527;28;20055;-75
2023/08/10 10:46:38;;;;;;;4.22;2.55;;;23.50;37.60;;;;;;5067337;28;20134;-77
2023/08/10 10:49:06;;;;;;;5.43;2.33;;;23.40;37.70;;;;;;5061619;28;20044;-77
2023/08/10 10:51:42;;;;;;;6.70;2.22;;;23.30;39.50;;;;;;5062829;28;20050;-78
2023/08/10 10:54:07;;;;;;;3.92;2.03;;;23.30;40.00;;;;;;5056905;28;20557;-77
2023/08/10 10:56:35;;;;;;;4.57;2.55;;;23.30;40.90;;;;;;5044681;28;20048;-77
2023/08/10 10:59:01;;;;;;;4.25;1.92;;;23.40;39.90;;;;;;5056449;28;20059;-75
2023/08/10 11:01:26;;;;;;;4.38;2.30;;;23.60;39.30;;;;;;5060283;28;20530;-77
2023/08/10 11:03:54;;;;;;;6.15;2.97;;;23.70;37.40;;;;;;5062290;28;20733;-76
2023/08/10 11:06:23;;;;;;;5.55;2.30;;;23.80;34.60;;;;;;5055055;28;20055;-75
2023/08/10 11:08:55;;;;;;;6.43;2.72;;;24.10;32.40;;;;;;5055282;28;20743;-77
2023/08/10 11:11:24;;;;;;;6.43;2.53;;;24.20;25.50;;;;;;5042708;28;20036;-76
2023/08/10 11:13:52;;;;;;;4.97;2.40;;;24.10;24.10;;;;;;5063017;28;20044;-75
2023/08/10 11:16:18;;;;;;;13.25;2.78;;;24.10;25.80;;;;;;5080379;28;20036;-73
2023/08/10 11:18:47;;;;;;;6.07;2.75;;;24.10;26.30;;;;;;5050712;28;20305;-73
2023/08/10 11:21:13;;;;;;;5.05;2.65;;;24.10;25.60;;;;;;5059149;28;20048;-73
2023/08/10 11:23:39;;;;;;;4.70;2.47;;;24.40;25.90;;;;;;5051241;28;20079;-72
2023/08/10 11:26:05;;;;;;;6.25;2.72;;;24.30;24.90;;;;;;5055016;28;20062;-74
2023/08/10 11:28:32;;;;;;;6.07;3.08;;;24.40;22.00;;;;;;5058269;28;20138;-74
2023/08/10 11:31:03;;;;;;;6.78;2.80;;;24.40;20.00;;;;;;5042976;28;20048;-75
2023/08/10 11:33:30;;;;;;;5.88;3.17;;;24.40;19.40;;;;;;5047350;28;20067;-75
2023/08/10 11:35:56;;;;;;;6.45;3.60;;;24.30;18.40;;;;;;5060004;28;20043;-74
2023/08/10 11:38:23;;;;;;;5.63;2.70;;;24.20;18.90;;;;;;5059412;28;20153;-78
2023/08/10 11:40:49;;;;;;;6.90;2.75;;;24.20;20.90;;;;;;5053587;28;20070;-74
2023/08/10 11:43:15;;;;;;;5.88;3.30;;;24.10;21.80;;;;;;5043763;28;20518;-73
2023/08/10 11:45:42;;;;;;;9.48;3.42;;;24.10;21.40;;;;;;5060138;28;20074;-74
2023/08/10 11:48:11;;;;;;;6.20;3.53;;;24.10;21.20;;;;;;5063041;28;20058;-74
2023/08/10 11:50:38;;;;;;;5.82;3.33;;;24.00;20.50;;;;;;5045658;28;20059;-74
2023/08/10 11:53:14;;;;;;;9.90;3.70;;;23.90;21.50;;;;;;5058940;28;20043;-76
2023/08/10 11:55:51;;;;;;;8.05;3.95;;;23.90;21.90;;;;;;5046360;28;20043;-74
2023/08/10 11:58:18;;;;;;;8.80;3.60;;;23.90;23.00;;;;;;5059804;28;20114;-78
2023/08/10 12:00:55;;;;;;;6.15;3.40;;;24.00;23.50;;;;;;5061943;28;20255;-75
2023/08/10 12:03:26;;;;;;;4.50;3.30;;;24.00;22.30;;;;;;5068799;28;20054;-74
2023/08/10 12:05:57;;;;;;;8.95;4.28;;;24.20;23.30;;;;;;5052061;28;20075;-77
2023/08/10 12:08:29;;;;;;;7.55;4.20;;;24.20;20.70;;;;;;5064510;28;20127;-74
2023/08/10 12:11:05;;;;;;;9.15;4.10;;;24.10;19.80;;;;;;5077700;28;20047;-76
2023/08/10 12:13:32;;;;;;;8.00;4.18;;;24.20;20.90;;;;;;5065634;28;20122;-76
2023/08/10 12:16:01;;;;;;;5.38;3.67;;;24.30;18.40;;;;;;5053442;28;20039;-76
2023/08/10 12:18:27;;;;;;;7.63;4.45;;;24.50;18.10;;;;;;5065122;28;20044;-77
2023/08/10 12:20:54;;;;;;;10.30;4.25;;;24.50;17.40;;;;;;5062314;28;20058;-74
2023/08/10 12:23:20;;;;;;;6.55;4.00;;;24.50;17.30;;;;;;5057181;28;20051;-75
2023/08/10 12:25:47;;;;;;;8.50;4.00;;;24.50;17.80;;;;;;5058567;28;20126;-77
2023/08/10 12:28:15;;;;;;;7.68;4.18;;;24.60;18.20;;;;;;5056232;28;20040;-74
2023/08/10 12:30:42;;;;;;;8.27;4.22;;;24.70;17.30;;;;;;5057547;28;20048;-78
2023/08/10 12:33:10;;;;;;;6.78;4.00;;;24.80;16.30;;;;;;5043149;28;20046;-76
2023/08/10 12:35:36;;;;;;;7.20;4.00;;;24.90;14.50;;;;;;5066698;28;20063;-76
2023/08/10 12:38:03;;;;;;;6.90;4.40;;;24.90;13.20;;;;;;5069542;28;20059;-76
2023/08/10 12:40:30;;;;;;;9.10;3.92;;;25.00;13.90;;;;;;5050367;28;20078;-78
2023/08/10 12:42:58;;;;;;;9.80;3.95;;;25.10;11.20;;;;;;5030796;28;20051;-76
2023/08/10 12:45:24;;;;;;;9.00;4.47;;;24.90;11.50;;;;;;5077100;28;20105;-73
2023/08/10 12:47:50;;;;;;;7.78;3.78;;;24.80;14.10;;;;;;5057659;28;20049;-77